TimeCET,TemperatureF,Dew PointF,Humidity,Sea Level PressureIn,VisibilityMPH,Wind Direction,Wind SpeedMPH,Gust SpeedMPH,PrecipitationIn,Events,Conditions,WindDirDegrees,DateUTC
12:00 AM,19.4,15.8,86,29.95,6.2,NW,6.9,-,N/A,,Scattered Clouds,310,2012-12-06 23:00:00
1:00 AM,21.2,15.8,80,29.95,6.2,Variable,2.3,-,N/A,,Mostly Cloudy,0,2012-12-07 00:00:00
3:00 AM,21.2,14.0,74,29.95,6.2,West,8.1,-,N/A,,Scattered Clouds,280,2012-12-07 02:00:00
5:00 AM,17.6,12.2,79,29.95,-9999.0,WSW,4.6,-,N/A,,Clear,250,2012-12-07 04:00:00
6:00 AM,19.4,14.0,80,29.95,-9999.0,Calm,Calm,-,N/A,,Clear,0,2012-12-07 05:00:00
7:00 AM,19.4,14.0,80,29.95,-9999.0,SSW,2.3,-,N/A,,Clear,210,2012-12-07 06:00:00
8:00 AM,19.4,14.0,80,29.95,6.2,Variable,1.2,-,N/A,,Scattered Clouds,0,2012-12-07 07:00:00
9:00 AM,19.4,15.8,86,29.95,6.2,South,3.5,-,N/A,,Mostly Cloudy,190,2012-12-07 08:00:00
10:00 AM,21.2,15.8,80,29.95,-9999.0,SSW,6.9,-,N/A,,Clear,200,2012-12-07 09:00:00
11:00 AM,23.0,15.8,74,29.95,-9999.0,South,4.6,-,N/A,,Clear,190,2012-12-07 10:00:00
12:00 PM,24.8,17.6,74,29.92,6.2,South,4.6,-,N/A,,Partly Cloudy,180,2012-12-07 11:00:00
1:00 PM,24.8,15.8,69,29.92,6.2,South,4.6,-,N/A,,Partly Cloudy,170,2012-12-07 12:00:00
2:00 PM,24.8,15.8,69,29.89,6.2,SSE,3.5,-,N/A,,Partly Cloudy,160,2012-12-07 13:00:00
3:00 PM,23.0,15.8,74,29.89,6.2,SSE,4.6,-,N/A,,Partly Cloudy,150,2012-12-07 14:00:00
4:00 PM,21.2,15.8,80,29.86,6.2,SSE,4.6,-,N/A,,Partly Cloudy,160,2012-12-07 15:00:00
5:00 PM,17.6,14.0,86,29.86,-9999.0,East,2.3,-,N/A,,Clear,90,2012-12-07 16:00:00
6:00 PM,14.0,10.4,86,29.89,-9999.0,ENE,6.9,-,N/A,,Clear,70,2012-12-07 17:00:00
7:00 PM,14.0,10.4,86,29.89,-9999.0,ENE,5.8,-,N/A,,Clear,70,2012-12-07 18:00:00
8:00 PM,12.2,8.6,85,29.89,-9999.0,ENE,4.6,-,N/A,,Clear,70,2012-12-07 19:00:00
9:00 PM,10.4,8.6,92,29.89,5.0,East,4.6,-,N/A,,Unknown,80,2012-12-07 20:00:00
10:00 PM,14.0,12.2,93,29.92,5.0,ENE,3.5,-,N/A,,Mostly Cloudy,70,2012-12-07 21:00:00
11:00 PM,15.8,12.2,86,29.92,5.0,ENE,2.3,-,N/A,,Mostly Cloudy,70,2012-12-07 22:00:00